Time;durP1;ratioP1;P1;durP2;ratioP2;P2;SDS_P1;SDS_P2;PMS_P1;PMS_P2;Temp;Humidity;BMP_temperature;BMP_pressure;BME280_temperature;BME280_humidity;BME280_pressure;Samples;Min_cycle;Max_cycle;Signal;HPM_P1;HPM_P2
2022/11/21 00:02:20;;;;;;;9.93;3.37;;;;;;;5.06;100.00;100240.75;10413249;28;20316;-72
2022/11/21 00:07:22;;;;;;;5.00;3.30;;;;;;;4.92;100.00;100238.56;10413902;28;20372;-72
2022/11/21 00:12:23;;;;;;;15.75;4.88;;;;;;;4.86;100.00;100252.50;10413274;28;20054;-73
2022/11/21 00:17:28;;;;;;;6.93;4.25;;;;;;;4.79;100.00;100252.72;10413679;28;20045;-73
2022/11/21 00:22:31;;;;;;;13.70;4.20;;;;;;;4.70;100.00;100253.81;10411153;28;20050;-74
2022/11/21 00:27:34;;;;;;;11.55;3.85;;;;;;;4.77;100.00;100263.13;10413189;28;20053;-72
2022/11/21 00:32:37;;;;;;;12.10;3.78;;;;;;;4.84;100.00;100261.19;10413210;28;20053;-72
2022/11/21 00:37:40;;;;;;;18.80;3.53;;;;;;;4.92;100.00;100263.59;10412904;28;20493;-74
2022/11/21 00:42:42;;;;;;;20.27;3.97;;;;;;;4.86;100.00;100255.09;10413340;28;20102;-73
2022/11/21 00:47:46;;;;;;;14.68;3.63;;;;;;;4.67;100.00;100248.72;10412605;28;20073;-73
2022/11/21 00:52:47;;;;;;;11.10;3.15;;;;;;;4.60;100.00;100246.34;10410913;28;20067;-73
2022/11/21 00:57:49;;;;;;;17.60;4.37;;;;;;;4.59;100.00;100241.19;10412390;28;20138;-73
2022/11/21 01:02:52;;;;;;;15.60;3.55;;;;;;;4.51;100.00;100242.25;10412487;28;20079;-73
2022/11/21 01:07:55;;;;;;;17.55;3.58;;;;;;;4.39;100.00;100242.59;10412870;28;20080;-73
2022/11/21 01:12:57;;;;;;;7.32;2.85;;;;;;;4.16;100.00;100240.56;10412460;28;20076;-73
2022/11/21 01:18:01;;;;;;;8.60;3.13;;;;;;;4.01;100.00;100245.25;10411891;28;20069;-73
2022/11/21 01:23:03;;;;;;;11.85;3.45;;;;;;;3.87;100.00;100250.75;10415349;28;20080;-74
2022/11/21 01:28:05;;;;;;;9.57;2.95;;;;;;;3.89;100.00;100251.56;10419709;28;20095;-73
2022/11/21 01:33:08;;;;;;;7.68;3.15;;;;;;;3.94;100.00;100251.47;10419072;28;20126;-73
2022/11/21 01:38:11;;;;;;;15.07;2.92;;;;;;;3.97;100.00;100248.81;10418994;28;20448;-74
2022/11/21 01:43:15;;;;;;;15.02;2.80;;;;;;;3.87;100.00;100243.00;10418999;28;20119;-73
2022/11/21 01:48:25;;;;;;;6.05;2.67;;;;;;;3.90;100.00;100239.50;10416589;28;20390;-73
2022/11/21 01:53:27;;;;;;;11.50;3.10;;;;;;;3.82;100.00;100250.00;10418787;28;20064;-74
2022/11/21 01:58:33;;;;;;;15.82;3.03;;;;;;;3.72;100.00;100244.22;10418197;28;20100;-73
2022/11/21 02:03:38;;;;;;;13.77;2.97;;;;;;;3.59;100.00;100234.19;10418231;28;20045;-74
2022/11/21 02:08:44;;;;;;;13.95;2.83;;;;;;;3.43;100.00;100238.00;10418365;28;20060;-75
2022/11/21 02:13:46;;;;;;;20.48;3.65;;;;;;;3.27;100.00;100243.50;10417459;28;20065;-73
2022/11/21 02:18:51;;;;;;;6.43;3.53;;;;;;;3.19;100.00;100248.78;10417947;28;20440;-73
2022/11/21 02:24:02;;;;;;;15.55;3.30;;;;;;;3.14;100.00;100262.66;10430513;28;20046;-73
2022/11/21 02:29:05;;;;;;;5.03;3.20;;;;;;;3.13;100.00;100256.69;10421263;28;20479;-74
2022/11/21 02:34:06;;;;;;;7.15;3.17;;;;;;;2.99;100.00;100254.38;10416574;28;20119;-74
2022/11/21 02:39:18;;;;;;;4.77;2.57;;;;;;;2.89;100.00;100258.03;10416818;28;20061;-73
2022/11/21 02:44:29;;;;;;;6.33;2.70;;;;;;;2.68;100.00;100265.28;10416205;28;20342;-74
2022/11/21 02:49:42;;;;;;;13.18;3.10;;;;;;;2.72;100.00;100266.94;10413909;28;20639;-73
2022/11/21 02:54:43;;;;;;;6.35;3.33;;;;;;;2.77;100.00;100269.44;10416364;28;20041;-73
2022/11/21 02:59:46;;;;;;;12.93;5.17;;;;;;;2.84;100.00;100260.69;10415605;28;20143;-74
2022/11/21 03:04:48;;;;;;;14.20;6.18;;;;;;;2.93;100.00;100259.66;10415575;28;20108;-74
2022/11/21 03:09:51;;;;;;;33.23;8.20;;;;;;;2.91;100.00;100248.53;10415262;28;20063;-75
2022/11/21 03:14:54;;;;;;;25.05;10.30;;;;;;;2.88;100.00;100261.47;10415273;28;20099;-74
2022/11/21 03:19:56;;;;;;;19.15;10.18;;;;;;;2.88;100.00;100249.47;10412899;28;20053;-73
2022/11/21 03:24:57;;;;;;;31.40;11.63;;;;;;;2.94;100.00;100251.03;10414851;28;20083;-74
2022/11/21 03:30:00;;;;;;;44.97;11.77;;;;;;;3.00;100.00;100245.75;10414606;28;20061;-74
2022/11/21 03:35:02;;;;;;;37.17;13.40;;;;;;;3.02;100.00;100244.03;10414322;28;20411;-74
2022/11/21 03:40:05;;;;;;;50.25;15.40;;;;;;;3.03;100.00;100247.44;10414295;28;20087;-73
2022/11/21 03:45:09;;;;;;;45.83;13.40;;;;;;;2.98;100.00;100244.97;10413174;28;20111;-73
2022/11/21 03:50:13;;;;;;;58.35;14.45;;;;;;;2.98;100.00;100242.38;10411983;28;20607;-75
2022/11/21 03:55:15;;;;;;;168.13;16.52;;;;;;;2.93;100.00;100239.03;10413744;28;20136;-74
2022/11/21 04:00:19;;;;;;;122.43;16.48;;;;;;;2.92;100.00;100250.22;10413518;28;20150;-74
2022/11/21 04:05:21;;;;;;;132.20;16.55;;;;;;;2.95;100.00;100260.50;10413487;28;20103;-73
2022/11/21 04:10:23;;;;;;;152.23;15.40;;;;;;;2.93;100.00;100254.50;10413525;28;20049;-74
2022/11/21 04:15:26;;;;;;;131.05;15.25;;;;;;;2.99;100.00;100250.94;10413367;28;20055;-74
2022/11/21 04:20:29;;;;;;;113.18;13.88;;;;;;;3.00;100.00;100250.91;10411467;28;20192;-74
2022/11/21 04:25:31;;;;;;;127.97;15.15;;;;;;;3.01;100.00;100251.78;10413566;28;20053;-73
2022/11/21 04:30:35;;;;;;;64.82;13.27;;;;;;;3.04;100.00;100249.13;10413208;28;20482;-74
2022/11/21 04:35:36;;;;;;;92.28;14.48;;;;;;;3.08;100.00;100235.31;10413129;28;20061;-73
2022/11/21 04:40:38;;;;;;;69.43;12.98;;;;;;;3.04;100.00;100226.78;10412955;28;20050;-75
2022/11/21 04:45:43;;;;;;;58.38;13.10;;;;;;;3.05;100.00;100202.69;10413168;28;20137;-74
2022/11/21 04:50:45;;;;;;;34.90;13.27;;;;;;;3.02;100.00;100218.25;10410654;28;20112;-73
2022/11/21 04:55:47;;;;;;;;;;;;;;;2.94;100.00;100207.22;10413668;28;20551;-73
2022/11/21 05:00:50;;;;;;;36.83;12.20;;;;;;;2.86;100.00;100204.81;10420545;28;19921;-74
2022/11/21 05:05:51;;;;;;;38.00;11.68;;;;;;;2.71;100.00;100203.41;10420516;28;20080;-74
2022/11/21 05:16:15;;;;;;;74.70;11.43;;;;;;;2.57;100.00;100196.78;10419547;28;20557;-74
2022/11/21 05:21:16;;;;;;;80.93;10.73;;;;;;;2.52;100.00;100187.44;10417509;28;20122;-74
2022/11/21 05:26:18;;;;;;;138.77;12.93;;;;;;;2.47;100.00;100179.81;10419278;28;20586;-73
2022/11/21 05:31:21;;;;;;;66.28;10.75;;;;;;;2.38;100.00;100177.41;10419108;28;20073;-74
2022/11/21 05:36:23;;;;;;;34.53;10.60;;;;;;;2.34;100.00;100178.34;10419125;28;20050;-73
2022/11/21 05:41:24;;;;;;;17.77;9.35;;;;;;;2.40;100.00;100173.91;10418932;28;20569;-74
2022/11/21 05:46:27;;;;;;;20.53;8.97;;;;;;;2.42;100.00;100161.88;10418631;28;20095;-73
2022/11/21 05:51:29;;;;;;;26.88;9.88;;;;;;;2.46;100.00;100172.13;10416450;28;20303;-75
2022/11/21 05:56:31;;;;;;;17.47;9.07;;;;;;;2.54;100.00;100165.91;10417983;28;20559;-74
2022/11/21 06:07:04;;;;;;;16.93;8.83;;;;;;;3.18;100.00;100150.88;10340782;28;20122;-74
2022/11/21 06:12:06;;;;;;;17.57;9.87;;;;;;;3.50;100.00;100161.31;10418344;28;20061;-75
2022/11/21 06:17:09;;;;;;;13.68;8.73;;;;;;;3.74;100.00;100165.84;10417822;28;20103;-74
2022/11/21 06:22:11;;;;;;;15.95;8.07;;;;;;;3.84;100.00;100156.16;10416820;28;20805;-72
2022/11/21 06:27:13;;;;;;;17.98;10.40;;;;;;;3.88;100.00;100138.00;10417205;28;20050;-73
2022/11/21 06:32:16;;;;;;;24.67;10.30;;;;;;;3.83;100.00;100138.97;10416671;28;20087;-75
2022/11/21 06:37:19;;;;;;;23.83;10.10;;;;;;;3.74;100.00;100128.88;10414883;28;20354;-74
2022/11/21 06:42:20;;;;;;;19.67;8.10;;;;;;;3.71;100.00;100132.41;10414015;28;20107;-73
2022/11/21 06:47:23;;;;;;;15.50;10.37;;;;;;;3.69;100.00;100125.56;10414751;28;20154;-74
2022/11/21 06:52:25;;;;;;;21.35;10.23;;;;;;;3.73;100.00;100137.53;10412895;28;20329;-73
2022/11/21 06:57:26;;;;;;;17.07;9.63;;;;;;;3.73;100.00;100130.63;10414749;28;20053;-75
2022/11/21 07:02:29;;;;;;;15.25;8.57;;;;;;;3.74;100.00;100123.72;10413533;28;20091;-74
2022/11/21 07:07:31;;;;;;;13.43;8.88;;;;;;;3.81;100.00;100127.84;10413055;28;20053;-74
2022/11/21 07:17:58;;;;;;;18.67;8.90;;;;;;;3.78;100.00;100109.00;10412387;28;20296;-73
2022/11/21 07:23:00;;;;;;;15.70;8.02;;;;;;;3.79;100.00;100110.69;10412960;28;20051;-73
2022/11/21 07:28:03;;;;;;;14.40;8.73;;;;;;;3.78;100.00;100109.00;10413567;28;20103;-72
2022/11/21 07:33:08;;;;;;;10.00;6.93;;;;;;;3.82;100.00;100113.19;10412869;28;20049;-72
2022/11/21 07:38:09;;;;;;;16.92;8.18;;;;;;;3.90;100.00;100113.00;10412854;28;20467;-74
2022/11/21 07:43:11;;;;;;;17.67;6.50;;;;;;;3.97;100.00;100114.53;10412874;28;20134;-74
2022/11/21 07:48:14;;;;;;;11.77;6.47;;;;;;;3.99;100.00;100112.75;10408072;28;20307;-74
2022/11/21 07:53:16;;;;;;;17.13;7.30;;;;;;;4.01;100.00;100111.00;10410047;28;20117;-74
2022/11/21 07:58:19;;;;;;;13.15;5.85;;;;;;;4.00;100.00;100104.09;10413755;28;20053;-73
2022/11/21 08:03:24;;;;;;;13.82;6.55;;;;;;;4.03;100.00;100098.88;10416663;28;20045;-73
2022/11/21 08:08:25;;;;;;;23.63;7.13;;;;;;;4.11;100.00;100102.09;10412602;28;20072;-73
2022/11/21 08:13:29;;;;;;;8.82;5.03;;;;;;;4.12;100.00;100098.63;10411787;28;20050;-72
2022/11/21 08:18:32;;;;;;;20.65;5.60;;;;;;;4.06;100.00;100098.78;10410860;28;20099;-72
2022/11/21 08:23:33;;;;;;;17.20;6.32;;;;;;;4.02;100.00;100097.19;10410639;28;20121;-71
2022/11/21 08:28:35;;;;;;;14.10;5.47;;;;;;;4.08;100.00;100083.25;10411591;28;20076;-71
2022/11/21 08:33:39;;;;;;;14.48;5.57;;;;;;;4.19;100.00;100075.22;10418817;28;20129;-72
2022/11/21 08:38:41;;;;;;;13.77;5.93;;;;;;;4.49;100.00;100060.56;10417936;28;20065;-71
2022/11/21 08:43:43;;;;;;;12.83;5.13;;;;;;;4.70;100.00;100044.44;10419240;28;20072;-72
2022/11/21 08:48:46;;;;;;;18.65;5.38;;;;;;;4.64;100.00;100041.16;10416312;28;20326;-71
2022/11/21 08:53:49;;;;;;;18.08;5.60;;;;;;;4.42;100.00;100055.63;10419264;28;20056;-70
2022/11/21 08:58:51;;;;;;;12.93;6.32;;;;;;;4.52;100.00;100051.88;10417383;28;20563;-70
2022/11/21 09:03:55;;;;;;;11.23;4.88;;;;;;;4.60;100.00;100042.16;10417148;28;20083;-71
2022/11/21 09:08:57;;;;;;;10.52;5.60;;;;;;;4.71;100.00;100034.06;10417734;28;20071;-74
2022/11/21 09:19:21;;;;;;;9.85;4.43;;;;;;;4.87;100.00;100026.69;10414856;28;20082;-69
2022/11/21 09:24:22;;;;;;;10.80;5.05;;;;;;;5.04;100.00;100025.28;10416675;28;20107;-76
2022/11/21 09:29:24;;;;;;;16.60;5.88;;;;;;;5.52;100.00;100035.78;10416817;28;20049;-69
2022/11/21 09:34:27;;;;;;;12.60;6.05;;;;;;;6.14;100.00;100015.50;10416520;28;20074;-70
2022/11/21 09:39:29;;;;;;;20.80;5.18;;;;;;;6.66;100.00;100003.19;10416431;28;20123;-69
2022/11/21 09:44:50;;;;;;;12.45;4.72;;;;;;;6.60;100.00;99993.06;10415046;28;20211;-70
2022/11/21 09:50:00;;;;;;;10.98;5.47;;;;;;;6.79;100.00;99998.34;10413456;28;20582;-67
2022/11/21 09:55:08;;;;;;;7.22;3.55;;;;;;;6.75;100.00;99986.44;10416132;28;20104;-66
2022/11/21 10:00:20;;;;;;;9.18;4.63;;;;;;;7.06;100.00;99985.19;10414890;28;20615;-67
2022/11/21 10:05:35;;;;;;;10.27;4.43;;;;;;;7.43;100.00;99978.41;10415120;28;20126;-65
2022/11/21 10:10:59;;;;;;;12.48;4.53;;;;;;;7.33;100.00;99972.78;10415316;28;20045;-65
2022/11/21 10:16:13;;;;;;;11.57;4.30;;;;;;;6.76;100.00;99965.63;10415349;28;20045;-67
2022/11/21 10:21:44;;;;;;;14.30;4.35;;;;;;;7.28;100.00;99951.38;10414304;28;20073;-65
2022/11/21 10:26:53;;;;;;;13.40;4.07;;;;;;;7.55;100.00;99939.84;10414149;28;20053;-65
2022/11/21 10:32:02;;;;;;;9.60;4.28;;;;;;;7.81;100.00;99943.03;10413927;28;20092;-65
2022/11/21 10:37:18;;;;;;;7.10;3.67;;;;;;;7.38;100.00;99925.84;10413889;28;20041;-68
2022/11/21 10:42:34;;;;;;;10.30;4.38;;;;;;;6.68;100.00;99921.84;10413512;28;20467;-65
2022/11/21 10:47:37;;;;;;;13.02;5.10;;;;;;;7.04;100.00;99919.53;10413595;28;20092;-66
2022/11/21 10:52:49;;;;;;;13.15;4.97;;;;;;;7.85;100.00;99916.00;10411693;28;20427;-67
2022/11/21 10:57:53;;;;;;;10.82;4.47;;;;;;;8.09;100.00;99908.00;10414045;28;20160;-66
2022/11/21 11:03:04;;;;;;;11.57;4.50;;;;;;;8.66;100.00;99888.84;10414146;28;20512;-67
2022/11/21 11:08:10;;;;;;;10.77;4.20;;;;;;;8.99;100.00;99884.59;10413438;28;20045;-66
2022/11/21 11:13:36;;;;;;;8.57;3.60;;;;;;;8.31;100.00;99880.97;10405429;28;20046;-66
2022/11/21 11:18:46;;;;;;;7.95;3.95;;;;;;;8.83;100.00;99867.16;10395879;28;20057;-66
2022/11/21 11:23:52;;;;;;;10.57;2.92;;;;;;;8.45;100.00;99862.09;10397672;28;20627;-66
2022/11/21 11:29:07;;;;;;;11.60;3.75;;;;;;;8.23;100.00;99858.78;10413455;28;20504;-66
2022/11/21 11:34:14;;;;;;;6.13;2.97;;;;;;;9.00;100.00;99850.69;10413154;28;20099;-67
2022/11/21 11:39:37;;;;;;;4.40;2.45;;;;;;;9.20;100.00;99834.97;10412807;28;20115;-67
2022/11/21 11:50:20;;;;;;;6.55;2.58;;;;;;;8.78;94.90;99804.13;10410577;28;20041;-68
2022/11/21 11:55:32;;;;;;;5.57;2.53;;;;;;;8.33;96.84;99790.75;10395075;28;20060;-66
2022/11/21 12:00:46;;;;;;;7.75;2.55;;;;;;;8.54;97.21;99778.47;10377110;28;20049;-66
2022/11/21 12:06:03;;;;;;;6.47;2.58;;;;;;;9.55;92.25;99758.47;10370733;28;20050;-66
2022/11/21 12:16:41;;;;;;;7.10;2.28;;;;;;;8.11;97.91;99734.66;10370922;28;20465;-66
2022/11/21 12:21:43;;;;;;;7.35;1.98;;;;;;;7.45;100.00;99729.13;10368621;28;20041;-67
2022/11/21 12:27:01;;;;;;;4.72;2.28;;;;;;;7.11;100.00;99723.75;10370446;28;20456;-68
2022/11/21 12:32:24;;;;;;;4.32;2.05;;;;;;;7.21;100.00;99709.47;10369897;28;20181;-66
2022/11/21 12:37:40;;;;;;;4.93;2.00;;;;;;;7.43;100.00;99697.22;10369678;28;20090;-67
2022/11/21 12:43:01;;;;;;;2.58;1.90;;;;;;;7.36;100.00;99690.63;10369160;28;20393;-66
2022/11/21 12:59:25;;;;;;;6.35;1.98;;;;;;;6.99;100.00;99646.50;10370075;28;20390;-72
2022/11/21 13:04:34;;;;;;;8.60;1.77;;;;;;;7.01;100.00;99639.50;10369096;28;20131;-72
2022/11/21 13:09:41;;;;;;;4.35;1.90;;;;;;;6.95;100.00;99622.47;10369203;28;20060;-71
2022/11/21 13:14:52;;;;;;;5.20;1.60;;;;;;;6.73;100.00;99599.28;10368392;28;20053;-76
2022/11/21 13:20:00;;;;;;;3.30;2.20;;;;;;;6.65;100.00;99587.53;10372003;28;20108;-65
2022/11/21 13:25:08;;;;;;;6.70;2.65;;;;;;;6.83;100.00;99600.53;10375785;28;20046;-67
2022/11/21 13:30:27;;;;;;;5.10;2.47;;;;;;;6.66;100.00;99573.66;10375442;28;20077;-67
2022/11/21 13:36:06;;;;;;;4.80;2.10;;;;;;;6.70;100.00;99570.00;10376062;28;20046;-67
2022/11/21 13:47:02;;;;;;;6.55;2.72;;;;;;;6.62;100.00;99556.56;10373510;28;20076;-68
2022/11/21 13:52:14;;;;;;;4.55;2.20;;;;;;;6.66;100.00;99547.72;10371085;28;20050;-67
2022/11/21 13:57:43;;;;;;;6.68;2.25;;;;;;;6.48;100.00;99530.41;10374732;28;20088;-70
2022/11/21 14:03:10;;;;;;;14.50;2.85;;;;;;;6.55;100.00;99518.88;10374193;28;20057;-67
2022/11/21 14:08:20;;;;;;;8.10;2.65;;;;;;;6.50;100.00;99510.47;10373975;28;20056;-68
2022/11/21 14:13:29;;;;;;;5.70;2.35;;;;;;;6.39;100.00;99504.03;10373933;28;20050;-70
2022/11/21 14:18:33;;;;;;;8.13;3.30;;;;;;;6.39;100.00;99488.47;10371416;28;20083;-68
2022/11/21 14:23:36;;;;;;;8.35;2.75;;;;;;;6.26;100.00;99475.25;10387672;28;20041;-68
2022/11/21 14:28:39;;;;;;;10.30;2.58;;;;;;;6.27;100.00;99474.31;10411684;28;20503;-69
2022/11/21 14:33:43;;;;;;;6.13;3.22;;;;;;;6.31;100.00;99472.44;10414197;28;20054;-69
2022/11/21 14:38:47;;;;;;;5.07;2.90;;;;;;;6.34;100.00;99466.28;10414163;28;20111;-69
2022/11/21 14:43:50;;;;;;;3.15;2.30;;;;;;;6.32;100.00;99445.63;10386235;28;20054;-69
2022/11/21 14:48:56;;;;;;;;;;;;;;;6.27;100.00;99437.25;10371947;28;20076;-69
2022/11/21 14:53:57;;;;;;;6.72;2.63;;;;;;;6.28;100.00;99433.72;10373878;28;20006;-69
2022/11/21 14:59:03;;;;;;;6.65;3.10;;;;;;;6.26;100.00;99414.84;10373564;28;20092;-68
2022/11/21 15:04:08;;;;;;;7.05;2.75;;;;;;;6.21;100.00;99402.09;10374683;28;20087;-68
2022/11/21 15:09:12;;;;;;;7.20;2.97;;;;;;;6.17;100.00;99392.78;10403240;28;20049;-69
2022/11/21 15:14:27;;;;;;;4.25;3.13;;;;;;;6.12;100.00;99387.81;10412538;28;20111;-69
2022/11/21 15:19:32;;;;;;;7.47;2.97;;;;;;;6.11;100.00;99377.53;10410803;28;20045;-67
2022/11/21 15:24:41;;;;;;;7.70;3.20;;;;;;;6.11;100.00;99370.59;10412216;28;20074;-68
2022/11/21 15:29:42;;;;;;;8.63;3.25;;;;;;;6.06;100.00;99362.22;10412538;28;20093;-69
2022/11/21 15:34:46;;;;;;;8.52;2.53;;;;;;;5.95;100.00;99338.56;10412715;28;20068;-68
2022/11/21 15:39:50;;;;;;;6.82;3.50;;;;;;;5.97;100.00;99313.41;10411375;28;20530;-69
2022/11/21 15:44:59;;;;;;;7.35;3.30;;;;;;;5.96;100.00;99309.16;10412858;28;20080;-68
2022/11/21 15:50:02;;;;;;;5.47;2.88;;;;;;;5.97;100.00;99313.41;10409756;28;20113;-69
2022/11/21 15:55:03;;;;;;;3.55;2.88;;;;;;;6.02;100.00;99303.69;10411357;28;20110;-68
2022/11/21 16:00:08;;;;;;;10.15;2.30;;;;;;;6.11;100.00;99302.41;10412661;28;20053;-69
2022/11/21 16:05:15;;;;;;;7.05;3.10;;;;;;;6.16;100.00;99301.28;10412102;28;20056;-69
2022/11/21 16:10:18;;;;;;;1.52;1.10;;;;;;;6.22;100.00;99294.13;10412196;28;20121;-69
2022/11/21 16:15:20;;;;;;;17.08;3.47;;;;;;;6.30;100.00;99281.63;10411827;28;20050;-67
2022/11/21 16:20:23;;;;;;;5.13;2.55;;;;;;;6.26;100.00;99261.97;10409700;28;20382;-68
2022/11/21 16:25:25;;;;;;;10.48;2.65;;;;;;;6.26;100.00;99265.38;10411121;28;20535;-69
2022/11/21 16:30:26;;;;;;;16.13;4.00;;;;;;;6.23;100.00;99262.94;10410229;28;20064;-68
2022/11/21 16:35:30;;;;;;;5.78;3.05;;;;;;;6.13;100.00;99241.84;10409628;28;20113;-69
2022/11/21 16:40:32;;;;;;;8.75;2.85;;;;;;;6.12;100.00;99231.59;10409755;28;20510;-68
2022/11/21 16:45:34;;;;;;;5.78;2.97;;;;;;;6.23;100.00;99218.09;10409896;28;20049;-68
2022/11/21 16:50:37;;;;;;;7.60;2.95;;;;;;;6.13;100.00;99204.75;10408065;28;20045;-69
2022/11/21 16:55:38;;;;;;;7.50;3.22;;;;;;;6.14;100.00;99204.69;10417616;28;20059;-68
2022/11/21 17:00:40;;;;;;;4.20;1.88;;;;;;;6.06;100.00;99196.47;10417519;28;20049;-71
2022/11/21 17:05:43;;;;;;;3.92;2.65;;;;;;;6.03;100.00;99176.72;10417534;28;20046;-70
2022/11/21 17:10:45;;;;;;;7.28;2.80;;;;;;;6.00;100.00;99176.00;10417495;28;20516;-73
2022/11/21 17:15:46;;;;;;;7.80;3.67;;;;;;;5.91;100.00;99156.59;10417242;28;20041;-72
2022/11/21 17:20:49;;;;;;;5.70;3.40;;;;;;;5.87;100.00;99150.75;10414451;28;20108;-73
2022/11/21 17:25:51;;;;;;;8.80;3.63;;;;;;;5.85;100.00;99152.56;10416542;28;20130;-71
2022/11/21 17:30:53;;;;;;;8.80;3.03;;;;;;;5.85;100.00;99137.03;10416216;28;20158;-71
2022/11/21 17:35:56;;;;;;;6.00;3.15;;;;;;;5.91;100.00;99130.69;10416138;28;20059;-72
2022/11/21 17:41:01;;;;;;;7.72;3.40;;;;;;;5.83;100.00;99128.50;10416549;28;20045;-72
2022/11/21 17:46:06;;;;;;;5.00;3.45;;;;;;;5.78;100.00;99120.97;10415918;28;20045;-72
2022/11/21 17:51:13;;;;;;;10.10;3.10;;;;;;;5.81;100.00;99125.16;10413146;28;20047;-72
2022/11/21 17:56:17;;;;;;;4.95;2.97;;;;;;;5.83;100.00;99123.34;10415670;28;20091;-73
2022/11/21 18:01:19;;;;;;;9.57;2.67;;;;;;;5.90;100.00;99124.69;10415203;28;20382;-71
2022/11/21 18:06:23;;;;;;;4.13;3.08;;;;;;;5.97;100.00;99134.72;10413529;28;20130;-74
2022/11/21 18:11:29;;;;;;;7.30;3.15;;;;;;;5.87;100.00;99122.25;10414625;28;20079;-72
2022/11/21 18:16:33;;;;;;;9.05;4.18;;;;;;;5.82;100.00;99108.72;10416048;28;20055;-71
2022/11/21 18:21:37;;;;;;;7.78;3.80;;;;;;;5.63;100.00;99086.34;10406992;28;20211;-72
2022/11/21 18:26:40;;;;;;;15.35;4.20;;;;;;;5.49;100.00;99074.09;10393363;28;20053;-70
2022/11/21 18:31:42;;;;;;;4.53;3.13;;;;;;;5.47;100.00;99067.31;10415694;28;20045;-70
2022/11/21 18:36:46;;;;;;;8.82;3.67;;;;;;;5.47;100.00;99065.56;10415478;28;20055;-72
2022/11/21 18:41:49;;;;;;;10.93;4.10;;;;;;;5.46;100.00;99058.72;10414598;28;20417;-73
2022/11/21 18:46:51;;;;;;;8.45;2.60;;;;;;;5.48;100.00;99062.03;10415229;28;20108;-75
2022/11/21 18:51:54;;;;;;;4.82;3.22;;;;;;;5.36;100.00;99042.81;10412482;28;20045;-72
2022/11/21 18:56:56;;;;;;;9.95;4.18;;;;;;;5.32;100.00;99049.06;10415081;28;20061;-74
2022/11/21 19:01:58;;;;;;;9.10;2.47;;;;;;;5.29;100.00;99038.84;10406339;28;20057;-77
2022/11/21 19:07:01;;;;;;;8.93;3.92;;;;;;;5.29;100.00;99025.91;10373841;28;20127;-74
2022/11/21 19:12:02;;;;;;;9.07;4.22;;;;;;;5.23;100.00;99021.03;10412027;28;20055;-74
2022/11/21 19:17:04;;;;;;;13.60;4.00;;;;;;;5.25;100.00;99014.06;10413036;28;20467;-75
2022/11/21 19:22:08;;;;;;;14.75;2.97;;;;;;;5.20;100.00;99014.28;10411789;28;20060;-72
2022/11/21 19:27:10;;;;;;;13.32;4.43;;;;;;;5.15;100.00;99011.09;10413798;28;20049;-76
2022/11/21 19:32:13;;;;;;;4.78;3.50;;;;;;;5.13;100.00;99006.00;10412535;28;20421;-77
2022/11/21 19:37:16;;;;;;;17.98;4.43;;;;;;;5.19;100.00;99007.44;10411712;28;20099;-74
2022/11/21 19:42:17;;;;;;;6.50;4.53;;;;;;;5.21;100.00;98997.88;10411245;28;20466;-76
2022/11/21 19:47:19;;;;;;;16.97;5.10;;;;;;;5.16;100.00;98989.47;10411019;28;20096;-75
2022/11/21 19:52:23;;;;;;;7.70;4.13;;;;;;;5.19;100.00;98972.97;10409044;28;20288;-75
2022/11/21 19:57:25;;;;;;;3.85;3.05;;;;;;;5.20;100.00;98974.66;10410903;28;20128;-74
2022/11/21 20:02:28;;;;;;;1.60;1.50;;;;;;;5.24;100.00;98948.53;10410341;28;20062;-73
2022/11/21 20:07:32;;;;;;;2.90;2.38;;;;;;;5.24;100.00;98945.97;10410444;28;20468;-73
2022/11/21 20:12:34;;;;;;;6.70;4.07;;;;;;;5.26;100.00;98938.13;10411261;28;20113;-73
2022/11/21 20:17:36;;;;;;;9.40;4.47;;;;;;;5.19;100.00;98927.25;10410221;28;20050;-75
2022/11/21 20:22:39;;;;;;;7.40;4.18;;;;;;;5.20;100.00;98928.09;10408359;28;20052;-75
2022/11/21 20:27:41;;;;;;;8.23;3.88;;;;;;;5.18;100.00;98910.09;10414167;28;20080;-74
2022/11/21 20:32:42;;;;;;;2.50;2.27;;;;;;;5.12;100.00;98913.81;10419420;28;20468;-73
2022/11/21 20:37:47;;;;;;;8.45;3.38;;;;;;;5.15;100.00;98911.09;10418249;28;20368;-75
2022/11/21 20:42:52;;;;;;;7.78;3.75;;;;;;;5.14;100.00;98909.38;10417851;28;20467;-76
2022/11/21 20:47:53;;;;;;;8.25;3.13;;;;;;;5.08;100.00;98894.19;10418774;28;20076;-73
2022/11/21 20:52:56;;;;;;;8.95;4.10;;;;;;;5.07;100.00;98900.28;10418310;28;20053;-73
2022/11/21 20:58:00;;;;;;;9.57;3.42;;;;;;;5.11;100.00;98895.78;10419475;28;20061;-73
2022/11/21 21:03:02;;;;;;;7.82;3.83;;;;;;;5.10;100.00;98886.38;10418770;28;20057;-73
2022/11/21 21:08:05;;;;;;;7.80;2.85;;;;;;;5.09;100.00;98890.69;10418291;28;20072;-74
2022/11/21 21:13:07;;;;;;;5.93;4.00;;;;;;;5.12;100.00;98880.19;10418465;28;20468;-73
2022/11/21 21:18:08;;;;;;;7.83;4.43;;;;;;;5.09;100.00;98872.59;10418695;28;20045;-75
2022/11/21 21:23:21;;;;;;;5.07;3.35;;;;;;;5.14;100.00;98882.72;10416993;28;20306;-74
2022/11/21 21:28:22;;;;;;;3.22;2.78;;;;;;;5.17;100.00;98861.03;10417979;28;20083;-73
2022/11/21 21:33:24;;;;;;;11.27;4.38;;;;;;;5.18;100.00;98876.47;10417696;28;20126;-73
2022/11/21 21:38:27;;;;;;;8.10;3.55;;;;;;;5.15;100.00;98869.69;10418961;28;20551;-74
2022/11/21 21:43:29;;;;;;;9.93;4.75;;;;;;;5.14;100.00;98869.78;10418576;28;20045;-73
2022/11/21 21:48:30;;;;;;;9.52;4.75;;;;;;;5.17;100.00;98882.56;10415818;28;20053;-75
2022/11/21 21:53:36;;;;;;;6.22;3.78;;;;;;;5.23;100.00;98865.84;10416724;28;20053;-73
2022/11/21 21:58:41;;;;;;;7.97;4.03;;;;;;;5.19;100.00;98867.78;10416490;28;20468;-75
2022/11/21 22:03:48;;;;;;;6.80;4.22;;;;;;;5.20;100.00;98866.03;10416840;28;20060;-73
2022/11/21 22:08:53;;;;;;;3.28;2.28;;;;;;;5.21;100.00;98857.34;10416289;28;20088;-73
2022/11/21 22:13:58;;;;;;;12.07;3.25;;;;;;;5.20;100.00;98855.69;10416305;28;20041;-73
2022/11/21 22:18:59;;;;;;;14.98;5.80;;;;;;;5.22;100.00;98859.88;10413480;28;20455;-73
2022/11/21 22:24:10;;;;;;;9.63;4.57;;;;;;;5.24;100.00;98863.19;10416225;28;20064;-73
2022/11/21 22:29:11;;;;;;;13.43;4.38;;;;;;;5.22;100.00;98859.03;10415281;28;20076;-74
2022/11/21 22:34:14;;;;;;;8.63;3.97;;;;;;;5.20;100.00;98856.50;10415258;28;20050;-73
2022/11/21 22:39:17;;;;;;;6.53;4.03;;;;;;;5.24;100.00;98863.19;10415075;28;20841;-74
2022/11/21 22:44:21;;;;;;;9.52;4.50;;;;;;;5.22;100.00;98841.75;10415829;28;20107;-73
2022/11/21 22:49:23;;;;;;;11.38;5.05;;;;;;;5.23;100.00;98847.75;10412971;28;20073;-73
2022/11/21 22:54:27;;;;;;;15.90;4.57;;;;;;;5.24;100.00;98839.09;10415026;28;20049;-72
2022/11/21 22:59:28;;;;;;;14.57;4.95;;;;;;;5.22;100.00;98841.75;10414207;28;20049;-73
2022/11/21 23:04:30;;;;;;;11.57;4.83;;;;;;;5.26;100.00;98832.09;10414256;28;20080;-77
2022/11/21 23:09:33;;;;;;;11.50;4.03;;;;;;;5.27;100.00;98841.53;10414180;28;20312;-75
2022/11/21 23:14:35;;;;;;;11.80;5.47;;;;;;;5.28;100.00;98838.03;10413936;28;20115;-75
2022/11/21 23:19:37;;;;;;;11.73;4.32;;;;;;;5.30;100.00;98832.78;10411193;28;20494;-76
2022/11/21 23:24:40;;;;;;;13.60;4.10;;;;;;;5.31;100.00;98832.69;10413911;28;20107;-76
2022/11/21 23:29:41;;;;;;;8.43;4.18;;;;;;;5.32;100.00;98829.19;10414277;28;20049;-75
2022/11/21 23:34:43;;;;;;;9.23;4.32;;;;;;;5.32;100.00;98831.78;10413329;28;20671;-78
2022/11/21 23:39:46;;;;;;;8.55;4.18;;;;;;;5.34;100.00;98824.75;10413157;28;20050;-77
2022/11/21 23:44:48;;;;;;;13.07;4.90;;;;;;;5.35;100.00;98844.56;10412690;28;20064;-77
2022/11/21 23:49:49;;;;;;;8.00;4.30;;;;;;;5.38;100.00;98834.00;10410537;28;20076;-76
2022/11/21 23:54:52;;;;;;;6.53;4.50;;;;;;;5.43;100.00;98851.06;10413235;28;20057;-78
2022/11/21 23:59:55;;;;;;;11.20;4.35;;;;;;;5.43;100.00;98853.66;10411968;28;20049;-77
